Time;durP1;ratioP1;P1;durP2;ratioP2;P2;SDS_P1;SDS_P2;PMS_P1;PMS_P2;Temp;Humidity;BMP_temperature;BMP_pressure;BME280_temperature;BME280_humidity;BME280_pressure;Samples;Min_cycle;Max_cycle;Signal;HPM_P1;HPM_P2
2023/03/22 00:01:52;;;;;;;;;;;;;;;21.71;27.34;97663.16;4996493;28;1902;-75
2023/03/22 00:04:18;;;;;;;;;;;;;;;21.64;27.25;97657.69;4980197;28;1530;-75
2023/03/22 00:06:44;;;;;;;;;;;;;;;21.71;27.44;97657.50;4980735;28;1019;-75
2023/03/22 00:09:09;;;;;;;;;;;;;;;22.01;26.76;97658.09;5016291;28;1081;-76
2023/03/22 00:11:35;;;;;;;;;;;;;;;22.07;26.94;97656.28;5020654;28;922;-75
2023/03/22 00:14:00;;;;;;;;;;;;;;;22.17;26.80;97649.47;5021065;28;919;-75
2023/03/22 00:16:26;;;;;;;;;;;;;;;21.93;26.91;97649.06;5004403;28;924;-76
2023/03/22 00:18:51;;;;;;;;;;;;;;;21.64;27.16;97648.41;5020293;28;967;-75
2023/03/22 00:21:17;;;;;;;;;;;;;;;21.56;27.38;97650.69;5020474;28;1272;-75
2023/03/22 00:23:42;;;;;;;;;;;;;;;22.04;26.68;97651.53;5037896;28;1983;-75
2023/03/22 00:26:08;;;;;;;;;;;;;;;22.05;26.62;97642.56;5003688;28;1541;-74
2023/03/22 00:28:35;;;;;;;;;;;;;;;22.27;26.45;97642.66;5004471;28;1172;-76
2023/03/22 00:31:00;;;;;;;;;;;;;;;21.89;27.09;97639.91;4996162;28;972;-75
2023/03/22 00:33:26;;;;;;;;;;;;;;;21.67;27.41;97636.97;4963882;28;1053;-76
2023/03/22 00:35:59;;;;;;;;;;;;;;;21.66;27.13;97638.25;4963758;28;1141;-75
2023/03/22 00:38:24;;;;;;;;;;;;;;;22.04;26.62;97645.88;4963899;28;1212;-76
2023/03/22 00:40:51;;;;;;;;;;;;;;;22.18;26.38;97636.94;4963833;28;1125;-75
2023/03/22 00:43:17;;;;;;;;;;;;;;;22.01;26.58;97635.44;4979605;28;1914;-76
2023/03/22 00:45:42;;;;;;;;;;;;;;;21.75;27.10;97629.03;4941026;29;1113;-76
2023/03/22 00:48:09;;;;;;;;;;;;;;;21.59;27.22;97621.47;4925396;29;1399;-75
2023/03/22 00:50:36;;;;;;;;;;;;;;;21.43;27.31;97613.88;4940976;29;1375;-75
2023/03/22 00:53:01;;;;;;;;;;;;;;;22.07;26.67;97614.59;4941161;29;978;-76
2023/03/22 00:55:27;;;;;;;;;;;;;;;22.30;26.04;97607.75;4925243;29;1085;-75
2023/03/22 00:57:52;;;;;;;;;;;;;;;22.21;26.31;97599.16;4909252;29;1237;-76
2023/03/22 01:00:18;;;;;;;;;;;;;;;21.92;26.88;97609.88;4924840;29;1194;-76
2023/03/22 01:02:44;;;;;;;;;;;;;;;21.73;27.10;97606.06;4940300;28;1978;-75
2023/03/22 01:05:15;;;;;;;;;;;;;;;21.49;27.42;97605.63;4929221;28;1250;-75
2023/03/22 01:07:43;;;;;;;;;;;;;;;21.90;26.79;97615.19;4937502;29;1664;-76
2023/03/22 01:10:09;;;;;;;;;;;;;;;21.95;26.83;97617.44;4906036;29;1413;-76
2023/03/22 01:12:36;;;;;;;;;;;;;;;22.15;26.26;97612.31;4906217;29;1281;-76
2023/03/22 01:15:03;;;;;;;;;;;;;;;21.76;26.76;97608.78;4905919;29;1070;-76
2023/03/22 01:17:28;;;;;;;;;;;;;;;21.72;26.73;97608.09;4929980;29;1257;-75
2023/03/22 01:19:54;;;;;;;;;;;;;;;21.81;26.87;97615.88;4921659;29;1216;-76
2023/03/22 01:22:19;;;;;;;;;;;;;;;22.19;26.52;97623.53;4917993;29;1985;-76
2023/03/22 01:24:45;;;;;;;;;;;;;;;22.19;26.43;97606.53;4918159;29;1079;-75
2023/03/22 01:27:10;;;;;;;;;;;;;;;21.94;26.27;97598.88;4918238;29;1180;-75
2023/03/22 01:29:36;;;;;;;;;;;;;;;21.77;26.53;97606.72;4918324;29;1243;-76
2023/03/22 01:32:03;;;;;;;;;;;;;;;21.68;26.96;97607.41;4918131;29;1453;-76
2023/03/22 01:34:28;;;;;;;;;;;;;;;21.82;26.96;97612.63;4918103;29;1176;-76
2023/03/22 01:36:54;;;;;;;;;;;;;;;22.15;26.19;97603.81;4917753;29;1077;-76
2023/03/22 01:39:20;;;;;;;;;;;;;;;22.02;26.36;97608.69;4921601;29;1352;-75
2023/03/22 01:41:48;;;;;;;;;;;;;;;22.17;26.18;97612.66;4920977;29;1903;-75
2023/03/22 01:44:17;;;;;;;;;;;;;;;21.74;26.67;97616.91;4883857;29;1097;-75
2023/03/22 01:46:45;;;;;;;;;;;;;;;21.61;26.85;97618.19;4883346;29;1467;-75
2023/03/22 01:49:12;;;;;;;;;;;;;;;21.75;26.78;97612.84;4929292;29;1173;-75
2023/03/22 01:51:39;;;;;;;;;;;;;;;22.10;26.19;97618.53;4920872;29;1175;-76
2023/03/22 01:54:45;;;;;;;;;;;;;;;22.22;26.01;97612.06;4943526;28;1200;-75
2023/03/22 01:57:24;;;;;;;;;;;;;;;21.77;26.53;97618.06;4936618;29;1460;-76
2023/03/22 01:59:50;;;;;;;;;;;;;;;21.75;26.72;97606.38;4936431;29;1032;-76
2023/03/22 02:02:34;;;;;;;;;;;;;;;21.47;27.04;97613.78;4922909;29;1927;-75
2023/03/22 02:05:11;;;;;;;;;;;;;;;21.88;26.58;97626.19;4920836;29;1162;-75
2023/03/22 02:07:37;;;;;;;;;;;;;;;22.01;26.60;97624.13;4936500;29;1128;-75
2023/03/22 02:10:03;;;;;;;;;;;;;;;22.08;26.34;97623.88;4936475;29;1164;-75
2023/03/22 02:13:02;;;;;;;;;;;;;;;21.80;26.77;97632.09;4920409;29;1270;-76
2023/03/22 02:15:47;;;;;;;;;;;;;;;21.49;27.25;97633.91;4864215;29;1227;-76
2023/03/22 02:18:31;;;;;;;;;;;;;;;21.52;27.17;97627.38;4864318;29;1229;-76
2023/03/22 02:21:10;;;;;;;;;;;;;;;22.06;26.35;97629.19;4879766;29;1178;-76
2023/03/22 02:23:35;;;;;;;;;;;;;;;22.07;26.26;97633.63;4879401;29;1919;-75
2023/03/22 02:26:01;;;;;;;;;;;;;;;21.92;26.74;97627.66;4879636;29;1407;-75
2023/03/22 02:28:35;;;;;;;;;;;;;;;21.75;26.67;97627.00;4879358;29;1269;-75
2023/03/22 02:31:06;;;;;;;;;;;;;;;21.53;26.84;97631.78;4864121;29;1331;-75
2023/03/22 02:33:52;;;;;;;;;;;;;;;21.98;26.44;97639.22;4900702;29;1232;-75
2023/03/22 02:36:33;;;;;;;;;;;;;;;21.98;26.68;97642.84;4920157;29;1245;-76
2023/03/22 02:39:11;;;;;;;;;;;;;;;21.99;26.42;97637.94;4935931;29;1164;-75
2023/03/22 02:41:55;;;;;;;;;;;;;;;21.60;27.15;97634.38;4920340;29;1209;-76
2023/03/22 02:44:39;;;;;;;;;;;;;;;21.45;27.04;97639.72;4920283;29;1296;-76
2023/03/22 02:47:08;;;;;;;;;;;;;;;21.33;27.63;97632.78;4920201;29;1273;-76
2023/03/22 02:49:37;;;;;;;;;;;;;;;22.19;26.34;97640.53;4920258;29;1234;-75
2023/03/22 02:52:16;;;;;;;;;;;;;;;22.15;26.33;97643.50;4912993;29;1262;-76
2023/03/22 02:54:47;;;;;;;;;;;;;;;22.03;26.33;97644.28;4923899;29;992;-75
2023/03/22 02:57:14;;;;;;;;;;;;;;;21.58;27.10;97636.88;4954966;28;1005;-75
2023/03/22 02:59:40;;;;;;;;;;;;;;;21.43;27.65;97635.75;4939177;29;969;-75
2023/03/22 03:02:06;;;;;;;;;;;;;;;21.85;27.17;97648.50;4923205;29;1967;-75
2023/03/22 03:04:34;;;;;;;;;;;;;;;22.00;26.99;97633.88;4919826;29;1260;-75
2023/03/22 03:07:04;;;;;;;;;;;;;;;22.05;26.54;97641.78;4934482;28;1002;-76
2023/03/22 03:09:30;;;;;;;;;;;;;;;21.66;27.27;97638.25;4942349;28;1130;-76
2023/03/22 03:11:56;;;;;;;;;;;;;;;21.46;27.61;97635.63;4958073;28;1229;-75
2023/03/22 03:14:25;;;;;;;;;;;;;;;21.57;27.29;97640.94;4942012;28;1286;-76
2023/03/22 03:17:05;;;;;;;;;;;;;;;21.78;27.15;97634.59;4942166;28;1139;-75
2023/03/22 03:19:33;;;;;;;;;;;;;;;21.79;27.06;97641.84;4942099;28;1182;-75
2023/03/22 03:22:04;;;;;;;;;;;;;;;22.05;26.70;97641.78;4943516;28;1898;-75
2023/03/22 03:24:32;;;;;;;;;;;;;;;21.74;27.26;97644.44;5011170;28;964;-76
2023/03/22 03:27:09;;;;;;;;;;;;;;;21.73;27.19;97652.16;4995189;28;885;-75
2023/03/22 03:29:42;;;;;;;;;;;;;;;21.72;27.35;97647.75;4994566;28;1524;-76
2023/03/22 03:32:15;;;;;;;;;;;;;;;22.14;26.60;97649.63;5010528;28;1496;-75
2023/03/22 03:34:41;;;;;;;;;;;;;;;22.28;26.79;97652.75;4995542;28;1045;-75
2023/03/22 03:37:11;;;;;;;;;;;;;;;22.17;26.53;97646.66;4994559;28;1144;-75
2023/03/22 03:39:38;;;;;;;;;;;;;;;21.75;27.00;97652.47;4978655;28;1259;-75
2023/03/22 03:42:04;;;;;;;;;;;;;;;21.69;27.29;97654.31;4998164;28;1906;-76
2023/03/22 03:44:30;;;;;;;;;;;;;;;21.67;27.21;97653.97;5014589;28;1013;-76
2023/03/22 03:46:55;;;;;;;;;;;;;;;21.94;27.16;97647.03;4999307;28;904;-75
2023/03/22 03:49:21;;;;;;;;;;;;;;;22.24;26.69;97648.47;5014393;28;927;-76
2023/03/22 03:51:53;;;;;;;;;;;;;;;22.22;26.57;97657.41;5014179;28;1213;-75
2023/03/22 03:54:19;;;;;;;;;;;;;;;21.69;27.53;97654.31;4982010;28;1348;-75
2023/03/22 03:56:46;;;;;;;;;;;;;;;21.42;27.64;97648.31;4997905;28;1267;-75
2023/03/22 03:59:16;;;;;;;;;;;;;;;21.65;27.46;97653.63;5014089;28;1207;-75
2023/03/22 04:01:49;;;;;;;;;;;;;;;22.06;26.68;97649.03;5013885;28;1425;-76
2023/03/22 04:04:25;;;;;;;;;;;;;;;22.27;26.48;97654.00;5002743;28;1454;-75
2023/03/22 04:06:58;;;;;;;;;;;;;;;21.90;26.75;97657.69;5002676;28;1171;-75
2023/03/22 04:09:30;;;;;;;;;;;;;;;21.79;27.05;97664.50;5002044;28;1256;-76
2023/03/22 04:12:02;;;;;;;;;;;;;;;21.62;27.59;97674.34;5001485;28;1290;-75
2023/03/22 04:14:28;;;;;;;;;;;;;;;21.97;27.11;97668.78;5018565;28;1038;-75
2023/03/22 04:17:00;;;;;;;;;;;;;;;21.95;26.91;97676.94;4985520;28;1191;-75
2023/03/22 04:19:26;;;;;;;;;;;;;;;22.17;26.49;97674.19;4984807;28;1242;-75
2023/03/22 04:21:51;;;;;;;;;;;;;;;22.15;26.47;97677.50;4960810;28;943;-75
2023/03/22 04:24:18;;;;;;;;;;;;;;;21.61;27.22;97680.47;4944915;28;1915;-75
2023/03/22 04:26:47;;;;;;;;;;;;;;;21.44;27.36;97671.28;4945186;28;1188;-75
2023/03/22 04:29:24;;;;;;;;;;;;;;;21.94;26.94;97675.34;4946194;28;1207;-75
2023/03/22 04:31:55;;;;;;;;;;;;;;;21.97;26.90;97674.47;4960451;28;1291;-76
2023/03/22 04:34:25;;;;;;;;;;;;;;;22.17;26.67;97679.88;4960707;28;1128;-75
2023/03/22 04:37:01;;;;;;;;;;;;;;;21.56;26.94;97679.81;4927663;28;1220;-76
2023/03/22 04:39:31;;;;;;;;;;;;;;;21.43;27.36;97686.69;4941153;29;1410;-75
2023/03/22 04:42:12;;;;;;;;;;;;;;;21.67;26.82;97685.13;4939699;29;1915;-76
2023/03/22 04:44:38;;;;;;;;;;;;;;;22.22;26.04;97691.41;4924649;29;1679;-77
2023/03/22 04:47:04;;;;;;;;;;;;;;;21.98;26.45;97684.53;4925276;29;1104;-75
2023/03/22 04:49:31;;;;;;;;;;;;;;;22.26;26.13;97686.41;4941297;29;1248;-76
2023/03/22 04:51:56;;;;;;;;;;;;;;;21.72;27.11;97681.72;4943729;28;1623;-75
2023/03/22 04:54:44;;;;;;;;;;;;;;;21.75;26.67;97686.47;4980619;28;1005;-76
2023/03/22 04:57:11;;;;;;;;;;;;;;;21.82;27.05;97696.78;4963523;28;1193;-75
2023/03/22 04:59:41;;;;;;;;;;;;;;;21.99;26.36;97694.63;4964144;28;1274;-75
2023/03/22 05:02:08;;;;;;;;;;;;;;;21.98;26.59;97682.50;4961206;28;1973;-76
2023/03/22 05:04:41;;;;;;;;;;;;;;;21.85;26.62;97696.66;4957116;28;1455;-76
2023/03/22 05:07:30;;;;;;;;;;;;;;;21.48;26.90;97698.25;4960287;28;1070;-76
2023/03/22 05:09:57;;;;;;;;;;;;;;;21.33;27.21;97692.22;4974934;28;1390;-75
2023/03/22 05:12:23;;;;;;;;;;;;;;;22.11;26.10;97696.66;4946772;28;1284;-76
2023/03/22 05:14:56;;;;;;;;;;;;;;;22.31;25.79;97700.03;4959807;28;1268;-76
2023/03/22 05:17:27;;;;;;;;;;;;;;;22.29;25.82;97702.53;4944452;28;1423;-76
2023/03/22 05:19:55;;;;;;;;;;;;;;;21.79;26.54;97706.97;4959596;28;1364;-75
2023/03/22 05:22:21;;;;;;;;;;;;;;;21.56;26.87;97707.31;4964187;28;1906;-76
2023/03/22 05:24:49;;;;;;;;;;;;;;;21.78;26.83;97702.56;5009011;28;1429;-76
2023/03/22 05:27:29;;;;;;;;;;;;;;;22.06;26.32;97711.38;4995185;28;1313;-76
2023/03/22 05:29:57;;;;;;;;;;;;;;;22.23;26.13;97714.91;4964153;28;1769;-76
2023/03/22 05:32:30;;;;;;;;;;;;;;;21.82;26.50;97711.75;4960020;28;1602;-75
2023/03/22 05:34:56;;;;;;;;;;;;;;;21.77;26.57;97715.13;4959880;28;1053;-75
2023/03/22 05:37:33;;;;;;;;;;;;;;;21.62;26.62;97728.16;4945058;28;1150;-76
2023/03/22 05:39:59;;;;;;;;;;;;;;;21.77;26.82;97714.34;4943267;28;1726;-76
2023/03/22 05:42:35;;;;;;;;;;;;;;;22.24;25.99;97711.59;4949630;28;1906;-75
2023/03/22 05:45:08;;;;;;;;;;;;;;;22.12;26.06;97717.28;4963105;28;1370;-76
2023/03/22 05:47:33;;;;;;;;;;;;;;;21.62;26.83;97716.81;4920721;29;1207;-76
2023/03/22 05:50:04;;;;;;;;;;;;;;;21.55;26.79;97722.69;4916552;29;1437;-76
2023/03/22 05:52:32;;;;;;;;;;;;;;;21.67;26.90;97707.78;4886892;29;1453;-76
2023/03/22 05:55:18;;;;;;;;;;;;;;;21.94;26.42;97720.69;4902419;29;1419;-76
2023/03/22 05:57:45;;;;;;;;;;;;;;;22.09;26.02;97705.59;4917191;29;1119;-76
2023/03/22 06:00:13;;;;;;;;;;;;;;;21.90;26.28;97720.78;4929532;29;1331;-75
2023/03/22 06:02:48;;;;;;;;;;;;;;;21.92;26.13;97714.69;4910126;28;1906;-76
2023/03/22 06:05:15;;;;;;;;;;;;;;;21.44;27.02;97725.06;4937563;28;1434;-76
2023/03/22 06:07:41;;;;;;;;;;;;;;;21.65;27.23;97717.94;4957520;28;1323;-75
2023/03/22 06:10:17;;;;;;;;;;;;;;;22.14;26.30;97717.63;4974689;28;1347;-75
2023/03/22 06:12:43;;;;;;;;;;;;;;;22.23;26.00;97727.03;4975002;28;1127;-76
2023/03/22 06:15:15;;;;;;;;;;;;;;;22.30;25.94;97732.44;4942005;29;1435;-76
2023/03/22 06:18:03;;;;;;;;;;;;;;;21.75;26.56;97728.94;4939124;29;1407;-75
2023/03/22 06:20:34;;;;;;;;;;;;;;;21.78;26.41;97730.09;4949728;29;1789;-76
2023/03/22 06:23:05;;;;;;;;;;;;;;;21.53;27.06;97736.53;4924250;29;1914;-76
2023/03/22 06:25:33;;;;;;;;;;;;;;;22.11;26.51;97733.50;4965834;28;1241;-75
2023/03/22 06:27:59;;;;;;;;;;;;;;;22.12;26.60;97732.25;4990675;28;1130;-75
2023/03/22 06:30:25;;;;;;;;;;;;;;;22.36;26.50;97741.16;4979015;28;1275;-76
2023/03/22 06:33:09;;;;;;;;;;;;;;;22.39;26.11;97740.25;4995036;28;1507;-76
2023/03/22 06:35:38;;;;;;;;;;;;;;;21.83;26.94;97743.69;4977686;28;1263;-76
2023/03/22 06:38:07;;;;;;;;;;;;;;;22.00;26.62;97742.31;4984712;28;1530;-75
2023/03/22 06:40:34;;;;;;;;;;;;;;;21.69;27.14;97750.56;4963472;28;1615;-76
2023/03/22 06:43:02;;;;;;;;;;;;;;;21.87;27.27;97750.03;4993656;28;1969;-76
2023/03/22 06:45:32;;;;;;;;;;;;;;;22.14;27.16;97755.25;4977603;28;1449;-75
2023/03/22 06:47:59;;;;;;;;;;;;;;;21.98;27.04;97744.81;4979802;28;1256;-77
2023/03/22 06:50:42;;;;;;;;;;;;;;;21.88;27.23;97750.81;4981328;28;1195;-76
2023/03/22 06:53:11;;;;;;;;;;;;;;;21.66;27.58;97760.00;4947817;28;1262;-76
2023/03/22 06:55:38;;;;;;;;;;;;;;;22.07;27.23;97758.28;4993568;28;1631;-76
2023/03/22 06:58:10;;;;;;;;;;;;;;;22.15;27.29;97754.00;4975361;28;1276;-76
2023/03/22 07:00:37;;;;;;;;;;;;;;;22.04;27.15;97759.22;5009633;28;1052;-75
2023/03/22 07:03:05;;;;;;;;;;;;;;;21.82;27.71;97765.56;4990886;28;1976;-75
2023/03/22 07:05:46;;;;;;;;;;;;;;;21.84;27.57;97765.88;4989735;28;1249;-75
2023/03/22 07:08:11;;;;;;;;;;;;;;;21.53;27.82;97764.84;4975448;28;1281;-76
2023/03/22 07:10:47;;;;;;;;;;;;;;;21.94;27.71;97760.34;4984644;28;1342;-76
2023/03/22 07:13:22;;;;;;;;;;;;;;;22.30;27.14;97762.84;4975348;28;1304;-76
2023/03/22 07:15:53;;;;;;;;;;;;;;;22.24;27.13;97767.50;4975768;28;1878;-75
2023/03/22 07:18:40;;;;;;;;;;;;;;;21.71;27.85;97765.09;4888549;29;1033;-75
2023/03/22 07:21:06;;;;;;;;;;;;;;;21.78;27.81;97775.41;4904160;29;1367;-76
2023/03/22 07:23:36;;;;;;;;;;;;;;;22.23;27.82;97766.72;4920409;29;1906;-75
2023/03/22 07:26:09;;;;;;;;;;;;;;;22.39;27.08;97773.50;4920528;29;1366;-76
2023/03/22 07:28:40;;;;;;;;;;;;;;;22.04;27.71;97776.19;4920439;29;1302;-75
2023/03/22 07:31:08;;;;;;;;;;;;;;;21.69;28.06;97778.91;4904205;29;1541;-76
2023/03/22 07:33:53;;;;;;;;;;;;;;;21.73;27.80;97779.59;4920243;29;958;-76
2023/03/22 07:36:24;;;;;;;;;;;;;;;21.99;28.31;97773.94;4904500;29;1388;-76
2023/03/22 07:38:50;;;;;;;;;;;;;;;22.14;27.86;97780.75;4889085;29;1177;-76
2023/03/22 07:41:22;;;;;;;;;;;;;;;22.32;27.30;97777.34;4904039;29;1457;-75
2023/03/22 07:43:54;;;;;;;;;;;;;;;21.91;28.03;97772.56;4886204;29;1902;-76
2023/03/22 07:46:21;;;;;;;;;;;;;;;21.98;27.73;97786.53;4885616;29;1111;-76
2023/03/22 07:49:07;;;;;;;;;;;;;;;21.94;28.25;97794.34;4874829;29;1048;-77
2023/03/22 07:51:51;;;;;;;;;;;;;;;22.04;27.93;97805.31;4884299;29;1387;-76
2023/03/22 07:54:17;;;;;;;;;;;;;;;22.11;27.72;97804.31;4851481;29;1162;-76
2023/03/22 07:56:43;;;;;;;;;;;;;;;21.94;27.83;97805.66;4883457;29;1209;-76
2023/03/22 07:59:09;;;;;;;;;;;;;;;21.68;28.47;97804.84;4894085;29;1523;-76
2023/03/22 08:01:36;;;;;;;;;;;;;;;21.53;27.91;97768.44;4907321;29;1354;-75
2023/03/22 08:04:24;;;;;;;;;;;;;;;21.93;28.41;97804.09;4875708;29;1978;-76
2023/03/22 08:07:00;;;;;;;;;;;;;;;22.34;27.67;97809.66;4862287;29;1273;-76
2023/03/22 08:09:27;;;;;;;;;;;;;;;22.21;27.89;97808.06;4878916;29;1316;-76
2023/03/22 08:11:53;;;;;;;;;;;;;;;22.04;27.87;97810.19;4895683;29;1391;-75
2023/03/22 08:14:19;;;;;;;;;;;;;;;21.69;28.58;97812.09;4903443;29;1023;-75
2023/03/22 08:16:45;;;;;;;;;;;;;;;21.80;28.20;97813.34;4916442;29;928;-76
2023/03/22 08:19:11;;;;;;;;;;;;;;;22.11;27.92;97815.66;4900481;29;949;-76
2023/03/22 08:21:36;;;;;;;;;;;;;;;22.15;27.85;97819.19;4911801;29;1399;-76
2023/03/22 08:24:06;;;;;;;;;;;;;;;21.97;28.07;97816.91;4899953;29;1895;-76
2023/03/22 08:27:03;;;;;;;;;;;;;;;21.87;28.23;97817.22;4825163;29;993;-76
2023/03/22 08:29:42;;;;;;;;;;;;;;;21.83;28.02;97806.78;4797865;29;1092;-76
2023/03/22 08:32:08;;;;;;;;;;;;;;;22.14;28.25;97811.94;4795975;29;1361;-76
2023/03/22 08:34:37;;;;;;;;;;;;;;;22.02;28.29;97824.00;4810756;29;1164;-75
2023/03/22 08:37:03;;;;;;;;;;;;;;;22.17;28.31;97818.72;4795845;29;1347;-76
2023/03/22 08:39:29;;;;;;;;;;;;;;;21.81;28.42;97820.63;4811104;29;1265;-76
2023/03/22 08:42:13;;;;;;;;;;;;;;;21.70;28.66;97820.13;4815410;29;1974;-77
2023/03/22 08:44:39;;;;;;;;;;;;;;;21.74;28.46;97823.66;4829008;29;1242;-76
2023/03/22 08:47:04;;;;;;;;;;;;;;;21.98;28.33;97821.31;4828790;29;1459;-76
2023/03/22 08:49:30;;;;;;;;;;;;;;;22.19;28.18;97833.25;4828903;29;1432;-76
2023/03/22 08:52:01;;;;;;;;;;;;;;;22.07;28.34;97826.28;4844679;29;1218;-76
2023/03/22 08:54:52;;;;;;;;;;;;;;;21.84;28.31;97819.69;4844359;29;1272;-75
2023/03/22 08:57:36;;;;;;;;;;;;;;;21.56;28.82;97831.88;4845222;29;1344;-76
2023/03/22 09:00:27;;;;;;;;;;;;;;;22.20;27.98;97838.47;4837928;29;1062;-76
2023/03/22 09:02:58;;;;;;;;;;;;;;;22.22;28.17;97846.50;4879235;29;1911;-75
2023/03/22 09:05:25;;;;;;;;;;;;;;;22.09;27.73;97846.47;4884118;29;1115;-76
2023/03/22 09:07:51;;;;;;;;;;;;;;;21.63;28.60;97845.81;4883765;29;1363;-76
2023/03/22 09:10:27;;;;;;;;;;;;;;;21.76;28.29;97851.50;4884238;29;1213;-75
2023/03/22 09:12:52;;;;;;;;;;;;;;;21.50;29.03;97857.13;4899570;29;985;-75
2023/03/22 09:15:18;;;;;;;;;;;;;;;22.23;27.70;97857.41;4900099;29;1149;-75
2023/03/22 09:17:51;;;;;;;;;;;;;;;22.18;27.77;97855.13;4883428;29;1360;-76
2023/03/22 09:20:17;;;;;;;;;;;;;;;21.92;28.21;97859.94;4900051;29;1258;-75
2023/03/22 09:22:45;;;;;;;;;;;;;;;21.74;28.21;97860.47;4884206;29;1907;-76
2023/03/22 09:25:13;;;;;;;;;;;;;;;21.74;28.11;97860.47;4883260;29;1511;-75
2023/03/22 09:27:41;;;;;;;;;;;;;;;21.47;28.86;97860.06;4842989;29;1428;-76
2023/03/22 09:30:07;;;;;;;;;;;;;;;22.01;27.75;97865.72;4828463;29;1280;-76
2023/03/22 09:32:33;;;;;;;;;;;;;;;22.14;27.84;97865.78;4807131;29;1116;-76
2023/03/22 09:35:01;;;;;;;;;;;;;;;21.79;27.83;97876.91;4791708;29;1388;-75
2023/03/22 09:37:34;;;;;;;;;;;;;;;21.78;27.77;97872.47;4826785;29;1344;-76
2023/03/22 09:40:00;;;;;;;;;;;;;;;21.77;28.38;97879.41;4830989;29;1259;-75
2023/03/22 09:42:31;;;;;;;;;;;;;;;22.01;27.64;97874.22;4857637;29;1911;-76
2023/03/22 09:45:00;;;;;;;;;;;;;;;22.24;27.01;97870.31;4831542;29;1231;-76
2023/03/22 09:47:45;;;;;;;;;;;;;;;21.98;27.24;97868.69;4846488;29;1019;-76
2023/03/22 09:50:31;;;;;;;;;;;;;;;21.93;27.24;97874.91;4861730;29;1137;-76
2023/03/22 09:52:56;;;;;;;;;;;;;;;21.51;27.99;97866.41;4863675;29;1777;-76
2023/03/22 09:55:41;;;;;;;;;;;;;;;21.76;28.14;97877.81;4864870;29;963;-76
2023/03/22 09:58:10;;;;;;;;;;;;;;;21.90;27.54;97878.63;4869752;29;1131;-75
2023/03/22 10:00:41;;;;;;;;;;;;;;;22.20;27.21;97880.19;4882932;29;1270;-76
2023/03/22 10:03:19;;;;;;;;;;;;;;;21.67;27.69;97877.66;4913448;29;1981;-76
2023/03/22 10:05:47;;;;;;;;;;;;;;;21.55;27.88;97878.41;4934716;29;1406;-76
2023/03/22 10:08:19;;;;;;;;;;;;;;;21.30;27.70;97837.47;4936415;28;1420;-76
2023/03/22 10:10:45;;;;;;;;;;;;;;;21.92;27.41;97878.97;4976121;28;1416;-76
2023/03/22 10:13:14;;;;;;;;;;;;;;;22.07;27.14;97877.28;4976303;28;926;-76
2023/03/22 10:15:44;;;;;;;;;;;;;;;22.31;26.73;97877.78;4955693;28;1945;-75
2023/03/22 10:18:15;;;;;;;;;;;;;;;21.94;27.03;97879.31;4939680;29;1386;-75
2023/03/22 10:20:40;;;;;;;;;;;;;;;21.93;27.17;97867.19;4939240;29;1420;-76
2023/03/22 10:23:09;;;;;;;;;;;;;;;21.54;27.51;97876.81;4936283;29;1906;-75
2023/03/22 10:25:35;;;;;;;;;;;;;;;22.04;26.88;97879.00;4920711;29;988;-76
2023/03/22 10:28:01;;;;;;;;;;;;;;;22.05;26.67;97874.13;4936173;29;984;-76
2023/03/22 10:30:28;;;;;;;;;;;;;;;22.10;26.71;97882.88;4926418;29;1475;-76
2023/03/22 10:32:56;;;;;;;;;;;;;;;22.00;26.71;97872.63;4916865;29;1475;-75
2023/03/22 10:35:22;;;;;;;;;;;;;;;21.66;27.43;97876.09;4920595;29;1642;-75
2023/03/22 10:37:48;;;;;;;;;;;;;;;21.59;27.71;97867.78;4936355;29;1012;-75
2023/03/22 10:40:21;;;;;;;;;;;;;;;21.76;27.20;97874.97;4882166;29;1433;-76
2023/03/22 10:42:50;;;;;;;;;;;;;;;22.23;26.44;97884.94;4882554;29;1969;-76
2023/03/22 10:45:16;;;;;;;;;;;;;;;22.17;26.75;97878.22;4867299;29;963;-76
2023/03/22 10:47:43;;;;;;;;;;;;;;;21.99;26.49;97873.09;4882540;29;965;-76
2023/03/22 10:50:12;;;;;;;;;;;;;;;21.82;26.75;97873.19;4859509;29;1531;-76
2023/03/22 10:52:40;;;;;;;;;;;;;;;21.58;27.37;97880.34;4860577;29;970;-75
2023/03/22 10:55:11;;;;;;;;;;;;;;;21.71;27.11;97878.38;4845403;29;1045;-75
2023/03/22 10:57:38;;;;;;;;;;;;;;;22.27;26.65;97871.44;4845443;29;1026;-76
2023/03/22 11:00:11;;;;;;;;;;;;;;;22.40;26.10;97882.81;4862782;29;1308;-75
2023/03/22 11:02:43;;;;;;;;;;;;;;;22.23;26.43;97880.06;4881284;29;1907;-76
2023/03/22 11:05:16;;;;;;;;;;;;;;;21.53;27.46;97875.25;4936119;29;946;-76
2023/03/22 11:07:44;;;;;;;;;;;;;;;21.67;26.92;97872.00;4916523;29;1182;-76
2023/03/22 11:10:09;;;;;;;;;;;;;;;22.02;26.56;97872.16;4913921;29;1570;-76
2023/03/22 11:12:35;;;;;;;;;;;;;;;22.22;26.38;97867.13;4897731;29;994;-76
2023/03/22 11:15:01;;;;;;;;;;;;;;;22.12;26.81;97868.25;4882245;29;1047;-77
2023/03/22 11:17:27;;;;;;;;;;;;;;;22.05;26.53;97871.28;4897960;29;1254;-75
2023/03/22 11:19:54;;;;;;;;;;;;;;;21.82;27.07;97876.00;4897982;29;1353;-76
2023/03/22 11:22:38;;;;;;;;;;;;;;;21.59;27.17;97864.94;4954649;29;1903;-75
2023/03/22 11:25:20;;;;;;;;;;;;;;;21.52;27.48;97865.16;4939090;29;1017;-76
2023/03/22 11:27:52;;;;;;;;;;;;;;;21.91;27.07;97863.22;4938576;29;999;-76
2023/03/22 11:30:24;;;;;;;;;;;;;;;22.08;26.78;97867.56;4937853;29;1658;-75
2023/03/22 11:32:58;;;;;;;;;;;;;;;22.04;26.55;97866.88;4954491;29;947;-75
2023/03/22 11:35:26;;;;;;;;;;;;;;;21.65;27.17;97856.69;4919695;29;1244;-76
2023/03/22 11:37:52;;;;;;;;;;;;;;;21.30;27.74;97853.66;4938587;29;1077;-76
2023/03/22 11:40:18;;;;;;;;;;;;;;;21.91;27.04;97851.88;4937978;29;1689;-75
2023/03/22 11:42:44;;;;;;;;;;;;;;;21.94;26.76;97859.47;4954563;29;1907;-76
2023/03/22 11:45:13;;;;;;;;;;;;;;;22.31;26.43;97853.06;4939011;29;952;-76
2023/03/22 11:47:38;;;;;;;;;;;;;;;21.72;27.21;97848.81;4916527;29;1269;-76
2023/03/22 11:50:05;;;;;;;;;;;;;;;21.84;27.15;97853.69;4899378;29;1419;-75
2023/03/22 11:52:30;;;;;;;;;;;;;;;21.65;27.31;97843.31;4882022;29;1403;-75
2023/03/22 11:54:57;;;;;;;;;;;;;;;22.08;26.69;97844.88;4897525;29;1165;-76
2023/03/22 11:57:26;;;;;;;;;;;;;;;22.30;26.42;97851.50;4913514;29;1031;-76
2023/03/22 12:00:05;;;;;;;;;;;;;;;22.29;26.11;97847.06;4887535;29;982;-76
2023/03/22 12:02:34;;;;;;;;;;;;;;;21.84;27.15;97842.34;4899813;29;1976;-76
2023/03/22 12:05:20;;;;;;;;;;;;;;;21.73;27.08;97841.88;4901079;29;986;-76
2023/03/22 12:07:46;;;;;;;;;;;;;;;21.44;27.59;97839.06;4938891;29;1075;-76
2023/03/22 12:10:13;;;;;;;;;;;;;;;21.78;27.04;97835.66;4940774;29;1369;-75
2023/03/22 12:12:44;;;;;;;;;;;;;;;22.12;26.54;97841.97;4942141;29;960;-75
2023/03/22 12:15:10;;;;;;;;;;;;;;;21.92;26.61;97830.81;4957833;29;1002;-76
2023/03/22 12:17:37;;;;;;;;;;;;;;;21.99;26.64;97837.06;4959158;28;1132;-75
2023/03/22 12:20:23;;;;;;;;;;;;;;;21.66;27.31;97833.63;4962638;28;1472;-76
2023/03/22 12:22:51;;;;;;;;;;;;;;;21.73;27.00;97829.78;4998176;28;1899;-75
2023/03/22 12:25:18;;;;;;;;;;;;;;;22.19;26.34;97833.25;4997494;28;971;-75
2023/03/22 12:27:48;;;;;;;;;;;;;;;22.27;26.13;97835.38;4997676;28;877;-76
2023/03/22 12:30:21;;;;;;;;;;;;;;;21.90;26.51;97841.78;4996870;28;1435;-76
2023/03/22 12:32:51;;;;;;;;;;;;;;;21.71;26.71;97833.06;4997097;28;969;-76
2023/03/22 12:35:19;;;;;;;;;;;;;;;21.71;26.84;97833.06;4981314;28;867;-76
2023/03/22 12:37:48;;;;;;;;;;;;;;;21.84;26.79;97831.03;4941300;29;1423;-75
2023/03/22 12:40:25;;;;;;;;;;;;;;;22.10;26.67;97826.22;4924850;29;1530;-76
2023/03/22 12:42:59;;;;;;;;;;;;;;;21.88;26.82;97825.25;4925556;29;1986;-75
2023/03/22 12:45:28;;;;;;;;;;;;;;;21.72;26.97;97823.31;4957331;29;1007;-75
2023/03/22 12:47:58;;;;;;;;;;;;;;;21.42;27.43;97826.63;4941195;29;1081;-75
2023/03/22 12:50:24;;;;;;;;;;;;;;;21.54;27.27;97823.03;4924551;29;1354;-76
2023/03/22 12:52:53;;;;;;;;;;;;;;;21.77;26.99;97825.59;4941107;29;1377;-76
2023/03/22 12:55:31;;;;;;;;;;;;;;;21.89;26.85;97826.84;4925466;29;1032;-76
2023/03/22 12:57:57;;;;;;;;;;;;;;;22.00;26.91;97826.50;4941299;29;1014;-76
2023/03/22 13:00:45;;;;;;;;;;;;;;;22.00;26.54;97829.34;4938409;29;1342;-76
2023/03/22 13:03:17;;;;;;;;;;;;;;;21.62;27.12;97838.59;4880764;29;1923;-76
2023/03/22 13:05:46;;;;;;;;;;;;;;;21.50;27.21;97828.81;4865651;29;1231;-76
2023/03/22 13:08:11;;;;;;;;;;;;;;;21.59;27.43;97826.09;4870516;29;917;-75
2023/03/22 13:10:40;;;;;;;;;;;;;;;21.95;26.78;97827.06;4884856;29;1316;-75
2023/03/22 13:13:18;;;;;;;;;;;;;;;22.22;26.38;97827.44;4868379;29;1228;-76
2023/03/22 13:15:55;;;;;;;;;;;;;;;22.01;26.40;97826.06;4899561;29;954;-75